Time;durP1;ratioP1;P1;durP2;ratioP2;P2;SDS_P1;SDS_P2;PMS_P1;PMS_P2;Temp;Humidity;BMP_temperature;BMP_pressure;BME280_temperature;BME280_humidity;BME280_pressure;Samples;Min_cycle;Max_cycle;Signal;HPM_P1;HPM_P2
2021/12/03 00:00:18;;;;;;;22.70;11.80;;;;;;;;;;5001150;28;20197;-69
2021/12/03 00:02:44;;;;;;;19.57;11.30;;;;;;;;;;4993030;28;20188;-69
2021/12/03 00:05:09;;;;;;;23.30;12.27;;;;;;;;;;5010942;28;20566;-69
2021/12/03 00:07:37;;;;;;;19.33;12.30;;;;;;;;;;4997101;28;23593;-69
2021/12/03 00:10:04;;;;;;;23.00;13.43;;;;;;;;;;5004530;28;20247;-69
2021/12/03 00:12:30;;;;;;;19.40;12.20;;;;;;;;;;5001760;28;20518;-69
2021/12/03 00:14:55;;;;;;;22.43;12.73;;;;;;;;;;5002298;28;20230;-69
2021/12/03 00:17:20;;;;;;;22.47;14.40;;;;;;;;;;5009006;28;20175;-69
2021/12/03 00:19:46;;;;;;;22.93;13.77;;;;;;;;;;5005198;28;20257;-69
2021/12/03 00:22:11;;;;;;;24.47;13.43;;;;;;;;;;5006972;28;20193;-69
2021/12/03 00:24:38;;;;;;;30.43;14.50;;;;;;;;;;4998672;28;20198;-69
2021/12/03 00:27:04;;;;;;;28.77;14.43;;;;;;;;;;5008106;28;20199;-69
2021/12/03 00:29:30;;;;;;;25.53;12.87;;;;;;;;;;4999226;28;20192;-69
2021/12/03 00:31:55;;;;;;;22.37;14.30;;;;;;;;;;5011503;28;20182;-69
2021/12/03 00:34:20;;;;;;;27.27;14.70;;;;;;;;;;5004727;28;20278;-69
2021/12/03 00:36:46;;;;;;;26.27;13.80;;;;;;;;;;5010279;28;20273;-69
2021/12/03 00:39:11;;;;;;;27.90;14.57;;;;;;;;;;5001687;28;20265;-69
2021/12/03 00:41:45;;;;;;;25.37;14.97;;;;;;;;;;5013180;28;20186;-69
2021/12/03 00:44:10;;;;;;;25.50;14.83;;;;;;;;;;5001174;28;20245;-69
2021/12/03 00:46:36;;;;;;;21.10;14.10;;;;;;;;;;5015385;28;20186;-69
2021/12/03 00:49:01;;;;;;;29.93;15.70;;;;;;;;;;5005021;28;20188;-69
2021/12/03 00:51:26;;;;;;;23.23;16.47;;;;;;;;;;4999822;28;20198;-69
2021/12/03 00:53:53;;;;;;;24.90;15.77;;;;;;;;;;5010382;28;20607;-69
2021/12/03 00:56:19;;;;;;;28.50;16.00;;;;;;;;;;4999497;28;20743;-70
2021/12/03 00:58:44;;;;;;;29.73;16.30;;;;;;;;;;5007951;28;20187;-70
2021/12/03 01:01:10;;;;;;;23.83;16.37;;;;;;;;;;5005666;28;20178;-70
2021/12/03 01:03:37;;;;;;;30.37;16.20;;;;;;;;;;5006792;28;20191;-70
2021/12/03 01:06:03;;;;;;;32.13;17.27;;;;;;;;;;5003236;28;20202;-70
2021/12/03 01:08:28;;;;;;;26.43;17.00;;;;;;;;;;5007270;28;20293;-70
2021/12/03 01:10:54;;;;;;;30.00;17.93;;;;;;;;;;4998156;28;20277;-70
2021/12/03 01:13:20;;;;;;;34.10;16.83;;;;;;;;;;5006664;28;20199;-70
2021/12/03 01:15:46;;;;;;;26.87;16.40;;;;;;;;;;5004157;28;20273;-70
2021/12/03 01:18:12;;;;;;;28.13;16.87;;;;;;;;;;5007766;28;20550;-70
2021/12/03 01:20:41;;;;;;;25.43;16.53;;;;;;;;;;5015119;28;20194;-70
2021/12/03 01:23:08;;;;;;;27.77;15.57;;;;;;;;;;4997341;28;20202;-70
2021/12/03 01:25:34;;;;;;;29.70;17.23;;;;;;;;;;5003774;28;20197;-70
2021/12/03 01:28:00;;;;;;;29.37;16.83;;;;;;;;;;4999682;28;20222;-70
2021/12/03 01:30:28;;;;;;;28.17;17.07;;;;;;;;;;5009673;28;20198;-70
2021/12/03 01:32:55;;;;;;;29.37;17.97;;;;;;;;;;5000993;28;20198;-70
2021/12/03 01:35:20;;;;;;;25.73;16.53;;;;;;;;;;5013902;28;20194;-70
2021/12/03 01:37:47;;;;;;;30.17;17.97;;;;;;;;;;5001581;28;20197;-70
2021/12/03 01:40:15;;;;;;;29.40;18.67;;;;;;;;;;5009290;28;20521;-70
2021/12/03 01:42:44;;;;;;;30.73;17.80;;;;;;;;;;5002855;28;20249;-69
2021/12/03 01:45:16;;;;;;;38.17;18.03;;;;;;;;;;5008444;28;20601;-70
2021/12/03 01:47:43;;;;;;;28.13;17.63;;;;;;;;;;4994581;28;20206;-70
2021/12/03 01:50:10;;;;;;;29.53;18.17;;;;;;;;;;5004335;28;21316;-69
2021/12/03 01:52:35;;;;;;;31.43;17.13;;;;;;;;;;5004340;28;20259;-70
2021/12/03 01:55:02;;;;;;;32.03;17.67;;;;;;;;;;5008188;28;20219;-70
2021/12/03 01:57:27;;;;;;;30.57;17.47;;;;;;;;;;5006507;28;20190;-70
2021/12/03 01:59:53;;;;;;;33.93;19.40;;;;;;;;;;4997132;28;20544;-68
2021/12/03 02:02:19;;;;;;;30.60;19.00;;;;;;;;;;5008034;28;20939;-69
2021/12/03 02:04:44;;;;;;;29.10;18.93;;;;;;;;;;4995405;28;20657;-70
2021/12/03 02:07:10;;;;;;;34.50;19.33;;;;;;;;;;5007542;28;20281;-69
2021/12/03 02:09:35;;;;;;;33.20;18.67;;;;;;;;;;4996474;28;20201;-69
2021/12/03 02:12:00;;;;;;;34.27;17.87;;;;;;;;;;5012280;28;20202;-70
2021/12/03 02:14:26;;;;;;;31.77;18.10;;;;;;;;;;4999499;28;20591;-70
2021/12/03 02:16:51;;;;;;;35.30;20.93;;;;;;;;;;5016189;28;20746;-70
2021/12/03 02:19:17;;;;;;;33.17;19.83;;;;;;;;;;5002256;28;20505;-70
2021/12/03 02:21:43;;;;;;;38.50;20.60;;;;;;;;;;5015660;28;20199;-70
2021/12/03 02:24:09;;;;;;;32.63;20.67;;;;;;;;;;4996536;28;20662;-70
2021/12/03 02:26:34;;;;;;;31.60;21.80;;;;;;;;;;5009126;28;20190;-70
2021/12/03 02:29:00;;;;;;;40.87;19.80;;;;;;;;;;5004556;28;20421;-70
2021/12/03 02:31:25;;;;;;;37.00;21.33;;;;;;;;;;4998552;28;20198;-70
2021/12/03 02:33:52;;;;;;;35.07;21.77;;;;;;;;;;5006475;28;20201;-70
2021/12/03 02:36:18;;;;;;;36.00;22.43;;;;;;;;;;5000532;28;20744;-70
2021/12/03 02:38:44;;;;;;;37.73;20.23;;;;;;;;;;5007785;28;20272;-70
2021/12/03 02:41:10;;;;;;;31.97;21.57;;;;;;;;;;4995043;28;20216;-70
2021/12/03 02:43:36;;;;;;;34.97;21.30;;;;;;;;;;5010939;28;20253;-70
2021/12/03 02:46:02;;;;;;;33.10;21.80;;;;;;;;;;4998798;28;20642;-70
2021/12/03 02:48:28;;;;;;;31.73;20.70;;;;;;;;;;5014494;28;20210;-70
2021/12/03 02:50:55;;;;;;;38.43;21.33;;;;;;;;;;4997447;28;20191;-70
2021/12/03 02:53:21;;;;;;;31.00;20.83;;;;;;;;;;5008301;28;20194;-70
2021/12/03 02:55:46;;;;;;;31.57;20.60;;;;;;;;;;4998155;28;20222;-70
2021/12/03 02:58:12;;;;;;;34.93;21.63;;;;;;;;;;4999405;28;20171;-70
2021/12/03 03:00:39;;;;;;;32.37;21.30;;;;;;;;;;5000725;28;20237;-70
2021/12/03 03:03:05;;;;;;;33.07;21.63;;;;;;;;;;5005551;28;20191;-70
2021/12/03 03:05:30;;;;;;;34.23;21.47;;;;;;;;;;5002852;28;20191;-70
2021/12/03 03:07:56;;;;;;;41.07;22.43;;;;;;;;;;4997435;28;20214;-68
2021/12/03 03:10:28;;;;;;;37.13;22.37;;;;;;;;;;5002574;28;20230;-70
2021/12/03 03:12:54;;;;;;;30.40;21.10;;;;;;;;;;5008464;28;20577;-70
2021/12/03 03:15:20;;;;;;;32.50;21.27;;;;;;;;;;5008124;28;20305;-70
2021/12/03 03:17:45;;;;;;;31.30;19.60;;;;;;;;;;4996786;28;20194;-70
2021/12/03 03:20:12;;;;;;;40.40;22.03;;;;;;;;;;5005130;28;20198;-70
2021/12/03 03:22:38;;;;;;;32.27;19.27;;;;;;;;;;5007813;28;20255;-70
2021/12/03 03:25:06;;;;;;;35.17;21.13;;;;;;;;;;5006030;28;20633;-70
2021/12/03 03:27:32;;;;;;;43.17;22.30;;;;;;;;;;4996850;28;20653;-70
2021/12/03 03:29:57;;;;;;;40.43;20.70;;;;;;;;;;5006876;28;20273;-70
2021/12/03 03:32:25;;;;;;;37.97;21.37;;;;;;;;;;5001544;28;20289;-70
2021/12/03 03:34:50;;;;;;;34.90;21.80;;;;;;;;;;5011709;28;20182;-70
2021/12/03 03:37:16;;;;;;;37.77;22.57;;;;;;;;;;5014695;28;20270;-70
2021/12/03 03:39:43;;;;;;;38.63;22.40;;;;;;;;;;4999658;28;20194;-70
2021/12/03 03:42:09;;;;;;;35.37;22.77;;;;;;;;;;5012692;28;20194;-70
2021/12/03 03:44:34;;;;;;;38.03;21.87;;;;;;;;;;5004726;28;20197;-70
2021/12/03 03:47:01;;;;;;;35.90;23.10;;;;;;;;;;5009768;28;20250;-70
2021/12/03 03:49:27;;;;;;;39.90;23.07;;;;;;;;;;5003676;28;20195;-70
2021/12/03 03:51:53;;;;;;;35.67;22.63;;;;;;;;;;5009622;28;20200;-70
2021/12/03 03:54:19;;;;;;;40.67;21.50;;;;;;;;;;4994664;28;20203;-70
2021/12/03 03:56:45;;;;;;;36.63;21.83;;;;;;;;;;5008514;28;20198;-70
2021/12/03 03:59:11;;;;;;;46.93;25.20;;;;;;;;;;4999772;28;20194;-70
2021/12/03 04:01:37;;;;;;;37.83;22.87;;;;;;;;;;5007976;28;20267;-70
2021/12/03 04:04:02;;;;;;;41.20;24.00;;;;;;;;;;5000091;28;20554;-70
2021/12/03 04:06:28;;;;;;;43.43;24.70;;;;;;;;;;5006883;28;20199;-70
2021/12/03 04:08:53;;;;;;;45.43;25.67;;;;;;;;;;5013527;28;20198;-69
2021/12/03 04:11:21;;;;;;;41.30;23.93;;;;;;;;;;5001301;28;20213;-69
2021/12/03 04:13:47;;;;;;;47.87;25.37;;;;;;;;;;5008792;28;20522;-69
2021/12/03 04:16:12;;;;;;;43.97;25.60;;;;;;;;;;4999325;28;20348;-71
2021/12/03 04:18:37;;;;;;;53.87;27.27;;;;;;;;;;5006528;28;20216;-71
2021/12/03 04:21:03;;;;;;;46.67;26.40;;;;;;;;;;5000252;28;20195;-70
2021/12/03 04:23:28;;;;;;;46.43;25.67;;;;;;;;;;5014732;28;20271;-70
2021/12/03 04:25:54;;;;;;;47.60;26.57;;;;;;;;;;5001538;28;20214;-70
2021/12/03 04:28:20;;;;;;;54.93;25.87;;;;;;;;;;5007913;28;20673;-70
2021/12/03 04:30:46;;;;;;;65.00;28.83;;;;;;;;;;5000358;28;20603;-70
2021/12/03 04:33:12;;;;;;;58.17;28.60;;;;;;;;;;5007454;28;20634;-70
2021/12/03 04:35:37;;;;;;;52.17;29.53;;;;;;;;;;5004685;28;20183;-70
2021/12/03 04:38:04;;;;;;;59.33;31.00;;;;;;;;;;5001420;28;20187;-70
2021/12/03 04:40:31;;;;;;;53.23;28.50;;;;;;;;;;5008382;28;20193;-70
2021/12/03 04:42:56;;;;;;;50.00;28.00;;;;;;;;;;5003572;28;20292;-70
2021/12/03 04:45:24;;;;;;;45.20;25.80;;;;;;;;;;5004618;28;20265;-70
2021/12/03 04:47:51;;;;;;;57.70;28.83;;;;;;;;;;4995044;28;20242;-70
2021/12/03 04:50:18;;;;;;;50.57;27.53;;;;;;;;;;4989844;28;20211;-70
2021/12/03 04:52:45;;;;;;;59.50;30.00;;;;;;;;;;4994838;28;20200;-68
2021/12/03 04:55:11;;;;;;;53.17;27.90;;;;;;;;;;5010009;28;20297;-70
2021/12/03 04:57:37;;;;;;;59.00;28.60;;;;;;;;;;4999692;28;20610;-69
2021/12/03 05:00:05;;;;;;;54.73;28.67;;;;;;;;;;5009436;28;20186;-69
2021/12/03 05:02:31;;;;;;;49.90;27.43;;;;;;;;;;5003883;28;20241;-69
2021/12/03 05:05:01;;;;;;;53.07;27.73;;;;;;;;;;5015380;28;20191;-69
2021/12/03 05:07:41;;;;;;;49.00;27.30;;;;;;;;;;5002553;28;20215;-69
2021/12/03 05:10:10;;;;;;;50.30;26.40;;;;;;;;;;5002805;28;20210;-69
2021/12/03 05:12:36;;;;;;;51.63;27.20;;;;;;;;;;5007765;28;20198;-69
2021/12/03 05:15:03;;;;;;;51.57;28.50;;;;;;;;;;5004301;28;20290;-69
2021/12/03 05:17:28;;;;;;;59.43;28.87;;;;;;;;;;5009109;28;20702;-70
2021/12/03 05:19:53;;;;;;;57.77;28.77;;;;;;;;;;4996548;28;20201;-70
2021/12/03 05:22:19;;;;;;;56.27;25.30;;;;;;;;;;5009222;28;20278;-70
2021/12/03 05:24:45;;;;;;;62.70;29.50;;;;;;;;;;4999230;28;20557;-70
2021/12/03 05:27:17;;;;;;;59.63;28.50;;;;;;;;;;5005963;28;20194;-70
2021/12/03 05:29:44;;;;;;;52.43;27.97;;;;;;;;;;4995970;28;20248;-70
2021/12/03 05:32:10;;;;;;;55.80;30.63;;;;;;;;;;5009776;28;20181;-70
2021/12/03 05:34:36;;;;;;;55.50;29.30;;;;;;;;;;5000953;28;20307;-70
2021/12/03 05:37:02;;;;;;;61.07;29.97;;;;;;;;;;5007588;28;20183;-69
2021/12/03 05:39:27;;;;;;;61.47;31.23;;;;;;;;;;5004982;28;20201;-69
2021/12/03 05:41:53;;;;;;;54.90;30.43;;;;;;;;;;5015618;28;20214;-69
2021/12/03 05:44:19;;;;;;;61.90;31.67;;;;;;;;;;4999590;28;20618;-70
2021/12/03 05:46:44;;;;;;;62.37;31.10;;;;;;;;;;5004436;28;20555;-70
2021/12/03 05:49:10;;;;;;;60.93;32.67;;;;;;;;;;5003712;28;20191;-70
2021/12/03 05:51:36;;;;;;;66.63;32.30;;;;;;;;;;5002499;28;20202;-70
2021/12/03 05:54:01;;;;;;;64.37;30.50;;;;;;;;;;5013577;28;20244;-70
2021/12/03 05:56:26;;;;;;;61.57;31.57;;;;;;;;;;5003873;28;20218;-70
2021/12/03 05:58:52;;;;;;;61.37;31.53;;;;;;;;;;5011918;28;20649;-70
2021/12/03 06:01:17;;;;;;;64.07;32.60;;;;;;;;;;5004849;28;20190;-70
2021/12/03 06:03:45;;;;;;;58.90;31.60;;;;;;;;;;5009740;28;20190;-70
2021/12/03 06:06:11;;;;;;;61.53;31.00;;;;;;;;;;5000411;28;20248;-70
2021/12/03 06:08:36;;;;;;;70.00;33.93;;;;;;;;;;5004502;28;20211;-70
2021/12/03 06:11:02;;;;;;;75.43;35.93;;;;;;;;;;4999120;28;20229;-70
2021/12/03 06:13:27;;;;;;;72.43;35.67;;;;;;;;;;5003275;28;20202;-70
2021/12/03 06:15:52;;;;;;;78.33;35.07;;;;;;;;;;5007190;28;20258;-70
2021/12/03 06:18:18;;;;;;;77.17;36.03;;;;;;;;;;5000506;28;20225;-70
2021/12/03 06:20:43;;;;;;;74.07;34.93;;;;;;;;;;5008282;28;20188;-70
2021/12/03 06:23:08;;;;;;;82.43;36.27;;;;;;;;;;4997319;28;20659;-70
2021/12/03 06:25:34;;;;;;;75.33;34.77;;;;;;;;;;5010577;28;20324;-70
2021/12/03 06:27:59;;;;;;;79.17;36.23;;;;;;;;;;5000086;28;20234;-70
2021/12/03 06:30:25;;;;;;;77.77;33.90;;;;;;;;;;5014726;28;20779;-70
2021/12/03 06:32:52;;;;;;;82.73;37.27;;;;;;;;;;4994619;28;20528;-70
2021/12/03 06:35:18;;;;;;;79.80;34.67;;;;;;;;;;5005653;28;20210;-70
2021/12/03 06:37:44;;;;;;;78.77;34.57;;;;;;;;;;4993991;28;20179;-70
2021/12/03 06:40:14;;;;;;;86.23;36.67;;;;;;;;;;5005263;28;20221;-70
2021/12/03 06:42:39;;;;;;;91.43;35.40;;;;;;;;;;4987073;28;20195;-70
2021/12/03 06:45:06;;;;;;;88.50;35.50;;;;;;;;;;5003038;28;20189;-70
2021/12/03 06:47:32;;;;;;;84.13;34.93;;;;;;;;;;4988106;28;20268;-70
2021/12/03 06:49:57;;;;;;;91.20;37.97;;;;;;;;;;5006263;28;20191;-70
2021/12/03 06:52:23;;;;;;;97.67;34.97;;;;;;;;;;5002760;28;20183;-70
2021/12/03 06:54:55;;;;;;;96.47;35.23;;;;;;;;;;4998309;28;20206;-71
2021/12/03 06:57:21;;;;;;;88.90;34.20;;;;;;;;;;5007752;28;23768;-70
2021/12/03 06:59:46;;;;;;;98.77;36.43;;;;;;;;;;4994512;28;20201;-71
2021/12/03 07:02:13;;;;;;;100.63;35.73;;;;;;;;;;5001206;28;20183;-71
2021/12/03 07:04:40;;;;;;;88.20;34.27;;;;;;;;;;4993375;28;20209;-71
2021/12/03 07:07:05;;;;;;;94.67;33.27;;;;;;;;;;5001764;28;20602;-71
2021/12/03 07:09:31;;;;;;;100.30;34.07;;;;;;;;;;4991722;28;20225;-71
2021/12/03 07:11:56;;;;;;;102.10;35.40;;;;;;;;;;5006848;28;20186;-71
2021/12/03 07:14:21;;;;;;;95.83;35.43;;;;;;;;;;4991049;28;20210;-71
2021/12/03 07:16:47;;;;;;;93.43;34.23;;;;;;;;;;5003540;28;20230;-71
2021/12/03 07:19:12;;;;;;;97.20;35.63;;;;;;;;;;4994605;28;20281;-71
2021/12/03 07:21:37;;;;;;;97.60;35.23;;;;;;;;;;5006501;28;20209;-71
2021/12/03 07:24:03;;;;;;;103.00;34.23;;;;;;;;;;5000798;28;20263;-71
2021/12/03 07:26:29;;;;;;;103.20;37.33;;;;;;;;;;4992635;28;20717;-70
2021/12/03 07:28:54;;;;;;;104.73;36.73;;;;;;;;;;5004241;28;20682;-71
2021/12/03 07:31:20;;;;;;;95.97;35.90;;;;;;;;;;4995230;28;20179;-71
2021/12/03 07:33:47;;;;;;;107.13;37.67;;;;;;;;;;5003490;28;20727;-71
2021/12/03 07:36:12;;;;;;;102.73;36.87;;;;;;;;;;4993660;28;20279;-71
2021/12/03 07:38:38;;;;;;;95.47;36.23;;;;;;;;;;5003627;28;20551;-71
2021/12/03 07:41:04;;;;;;;99.97;34.90;;;;;;;;;;4996701;28;20214;-71
2021/12/03 07:43:29;;;;;;;102.47;38.23;;;;;;;;;;5002235;28;20212;-71
2021/12/03 07:45:55;;;;;;;99.33;35.97;;;;;;;;;;4993887;28;20677;-71
2021/12/03 07:48:22;;;;;;;113.73;36.93;;;;;;;;;;5002018;28;20902;-71
2021/12/03 07:50:49;;;;;;;114.30;36.13;;;;;;;;;;4999579;28;20663;-71
2021/12/03 07:53:18;;;;;;;110.17;37.77;;;;;;;;;;5002030;28;20189;-71
2021/12/03 07:55:47;;;;;;;103.30;37.97;;;;;;;;;;5005568;28;20310;-72
2021/12/03 07:58:13;;;;;;;105.53;37.43;;;;;;;;;;4994514;28;20174;-71
2021/12/03 08:00:39;;;;;;;109.50;37.37;;;;;;;;;;5008531;28;20712;-72
2021/12/03 08:03:05;;;;;;;103.70;37.77;;;;;;;;;;5000493;28;20202;-72
2021/12/03 08:05:30;;;;;;;113.00;39.10;;;;;;;;;;5007827;28;20194;-72
2021/12/03 08:07:58;;;;;;;102.60;36.37;;;;;;;;;;5005209;28;20214;-73
2021/12/03 08:10:23;;;;;;;113.97;38.37;;;;;;;;;;5008900;28;20183;-73
2021/12/03 08:12:48;;;;;;;108.47;39.03;;;;;;;;;;4998176;28;20202;-73
2021/12/03 08:15:15;;;;;;;104.73;38.80;;;;;;;;;;5010884;28;20553;-73
2021/12/03 08:17:41;;;;;;;109.80;38.03;;;;;;;;;;5002429;28;20178;-72
2021/12/03 08:20:08;;;;;;;99.23;37.30;;;;;;;;;;5012195;28;20189;-72
2021/12/03 08:22:34;;;;;;;99.10;39.97;;;;;;;;;;5004168;28;20183;-72
2021/12/03 08:25:00;;;;;;;100.73;38.23;;;;;;;;;;5002039;28;20194;-72
2021/12/03 08:27:25;;;;;;;98.90;38.63;;;;;;;;;;5010063;28;20488;-72
2021/12/03 08:29:50;;;;;;;99.60;39.17;;;;;;;;;;5002789;28;20187;-72
2021/12/03 08:32:16;;;;;;;99.67;38.13;;;;;;;;;;5015499;28;20646;-72
2021/12/03 08:34:41;;;;;;;96.53;38.53;;;;;;;;;;5001356;28;20195;-72
2021/12/03 08:37:08;;;;;;;91.63;36.83;;;;;;;;;;5015785;28;20226;-72
2021/12/03 08:39:34;;;;;;;86.23;35.43;;;;;;;;;;4999308;28;20288;-72
2021/12/03 08:41:59;;;;;;;94.13;37.27;;;;;;;;;;5009645;28;20594;-72
2021/12/03 08:44:25;;;;;;;92.07;38.33;;;;;;;;;;5000268;28;20258;-72
2021/12/03 08:46:58;;;;;;;94.20;36.07;;;;;;;;;;5019341;28;20483;-72
2021/12/03 08:49:37;;;;;;;84.80;35.77;;;;;;;;;;4997216;28;20281;-72
2021/12/03 08:57:14;;;;;;;68.57;31.07;;;;;;;;;;5012501;28;20199;-73
2021/12/03 08:59:40;;;;;;;74.00;31.03;;;;;;;;;;5002168;28;20281;-72
2021/12/03 09:02:05;;;;;;;70.63;30.17;;;;;;;;;;5008334;28;20270;-72
2021/12/03 09:04:31;;;;;;;69.90;30.07;;;;;;;;;;5000924;28;20198;-72
2021/12/03 09:07:00;;;;;;;74.43;31.17;;;;;;;;;;5007018;28;20194;-73
2021/12/03 09:09:27;;;;;;;67.83;29.77;;;;;;;;;;5005221;28;20246;-72
2021/12/03 09:11:55;;;;;;;60.43;26.57;;;;;;;;;;5004202;28;20549;-72
2021/12/03 09:19:39;;;;;;;51.60;23.77;;;;;;;;;;5014256;28;20194;-72
2021/12/03 09:22:05;;;;;;;47.80;21.37;;;;;;;;;;5003268;28;20203;-72
2021/12/03 09:24:36;;;;;;;53.37;22.83;;;;;;;;;;5008201;28;20493;-73
2021/12/03 09:27:02;;;;;;;46.60;21.50;;;;;;;;;;4995738;28;20298;-73
2021/12/03 09:29:32;;;;;;;39.40;19.67;;;;;;;;;;5010549;28;20617;-72
2021/12/03 09:31:59;;;;;;;43.27;19.13;;;;;;;;;;4997057;28;20193;-72
2021/12/03 09:34:28;;;;;;;40.80;17.63;;;;;;;;;;5010381;28;20198;-72
2021/12/03 09:36:53;;;;;;;40.47;17.57;;;;;;;;;;4998893;28;20654;-72
2021/12/03 09:39:21;;;;;;;36.87;15.73;;;;;;;;;;5013063;28;20194;-72
2021/12/03 09:41:48;;;;;;;31.87;14.33;;;;;;;;;;5007403;28;20190;-72
2021/12/03 09:44:13;;;;;;;27.87;14.27;;;;;;;;;;5015830;28;20603;-72
2021/12/03 09:46:39;;;;;;;31.27;14.27;;;;;;;;;;5007299;28;21743;-72
2021/12/03 09:51:36;;;;;;;27.73;11.87;;;;;;;;;;5016141;28;20540;-72
2021/12/03 09:56:37;;;;;;;26.07;10.63;;;;;;;;;;5018788;28;20304;-72
2021/12/03 10:01:58;;;;;;;22.43;9.70;;;;;;;;;;5018542;28;20502;-73
2021/12/03 10:18:31;;;;;;;23.13;8.13;;;;;;;;;;5005070;28;20505;-71
2021/12/03 10:20:47;;;;;;;16.17;6.57;;;;;;;;;;5012397;28;20218;-72
2021/12/03 10:32:02;;;;;;;21.50;6.50;;;;;;;;;;5007812;28;20281;-72
2021/12/03 10:47:44;;;;;;;15.93;6.10;;;;;;;;;;5008150;28;20294;-73
2021/12/03 10:50:26;;;;;;;19.83;5.93;;;;;;;;;;5000187;28;20195;-72
2021/12/03 10:58:07;;;;;;;16.50;5.70;;;;;;;;;;5007729;28;20175;-72
2021/12/03 11:11:14;;;;;;;17.03;5.90;;;;;;;;;;5007356;28;20225;-72
2021/12/03 11:17:35;;;;;;;13.80;5.50;;;;;;;;;;5004520;28;20269;-72
2021/12/03 11:28:33;;;;;;;17.70;4.80;;;;;;;;;;5000863;28;20222;-72
2021/12/03 11:34:11;;;;;;;14.37;4.30;;;;;;;;;;4998971;28;20208;-72
2021/12/03 11:37:08;;;;;;;10.40;3.90;;;;;;;;;;5005198;28;20194;-72
2021/12/03 12:05:51;;;;;;;16.37;5.07;;;;;;;;;;5005448;28;20194;-71
2021/12/03 12:14:35;;;;;;;17.27;5.43;;;;;;;;;;5003287;28;20187;-72
2021/12/03 12:16:34;;;;;;;19.90;4.87;;;;;;;;;;4998572;28;20230;-72
2021/12/03 12:29:02;;;;;;;17.80;5.97;;;;;;;;;;5012360;28;20697;-72
2021/12/03 12:42:43;;;;;;;17.23;6.43;;;;;;;;;;5004878;28;20197;-71
2021/12/03 13:09:54;;;;;;;16.77;5.33;;;;;;;;;;4999963;28;20203;-71
2021/12/03 13:18:12;;;;;;;15.27;4.90;;;;;;;;;;4996237;28;20524;-71
2021/12/03 13:24:12;;;;;;;15.63;5.37;;;;;;;;;;5000965;28;20198;-72
2021/12/03 13:32:32;;;;;;;13.53;4.80;;;;;;;;;;5003920;28;20534;-71
2021/12/03 13:59:42;;;;;;;12.97;4.80;;;;;;;;;;5005454;28;20567;-71
2021/12/03 14:02:38;;;;;;;17.77;5.47;;;;;;;;;;5005362;28;20260;-71
2021/12/03 14:06:20;;;;;;;9.50;4.27;;;;;;;;;;5000235;28;20213;-71
2021/12/03 14:11:05;;;;;;;12.00;4.63;;;;;;;;;;4996506;28;20559;-71
2021/12/03 14:19:24;;;;;;;10.33;4.13;;;;;;;;;;5003647;28;21241;-71
2021/12/03 14:33:38;;;;;;;17.93;5.17;;;;;;;;;;4998685;28;20225;-71
2021/12/03 14:51:17;;;;;;;11.20;4.83;;;;;;;;;;5006586;28;20199;-70
2021/12/03 14:56:16;;;;;;;13.17;5.13;;;;;;;;;;5009866;28;20241;-71
2021/12/03 15:07:06;;;;;;;9.93;4.13;;;;;;;;;;5005726;28;20186;-72
2021/12/03 15:09:43;;;;;;;11.13;5.23;;;;;;;;;;4995794;28;20307;-72
2021/12/03 15:12:34;;;;;;;15.83;4.97;;;;;;;;;;5002510;28;20194;-71
2021/12/03 15:23:21;;;;;;;12.37;5.20;;;;;;;;;;5004743;28;20202;-72
2021/12/03 15:25:57;;;;;;;10.23;4.87;;;;;;;;;;5007173;28;20182;-72
2021/12/03 15:28:46;;;;;;;12.97;5.03;;;;;;;;;;5003787;28;20205;-72
2021/12/03 15:31:27;;;;;;;13.90;5.30;;;;;;;;;;5005323;28;20662;-72
2021/12/03 15:34:05;;;;;;;11.53;5.20;;;;;;;;;;4995637;28;20526;-72
2021/12/03 15:36:57;;;;;;;12.97;5.43;;;;;;;;;;5002018;28;20371;-71
2021/12/03 16:06:41;;;;;;;8.67;6.00;;;;;;;;;;4998640;28;20228;-72
2021/12/03 16:09:08;;;;;;;12.40;7.67;;;;;;;;;;5004727;28;20225;-71
2021/12/03 16:16:49;;;;;;;11.90;7.30;;;;;;;;;;4994407;28;20265;-72
2021/12/03 16:49:33;;;;;;;13.20;8.27;;;;;;;;;;4990703;28;20222;-71
2021/12/03 16:51:41;;;;;;;10.37;7.07;;;;;;;;;;4998122;28;20268;-70
2021/12/03 16:54:11;;;;;;;14.10;8.13;;;;;;;;;;4991764;28;20195;-70
2021/12/03 16:56:43;;;;;;;12.87;7.77;;;;;;;;;;5005743;28;20712;-71
2021/12/03 16:59:09;;;;;;;13.47;7.57;;;;;;;;;;4992415;28;20194;-71
2021/12/03 17:04:28;;;;;;;11.70;7.43;;;;;;;;;;4989955;28;20222;-71
2021/12/03 17:31:36;;;;;;;10.57;7.80;;;;;;;;;;4985459;28;20206;-71
2021/12/03 17:47:39;;;;;;;9.73;7.33;;;;;;;;;;5004110;28;20670;-70
2021/12/03 17:50:11;;;;;;;8.90;7.30;;;;;;;;;;4998296;28;20625;-70
2021/12/03 18:00:32;;;;;;;10.90;7.37;;;;;;;;;;4650455;28;10000111;-73
2021/12/03 18:03:06;;;;;;;8.70;7.50;;;;;;;;;;4983900;28;20202;-72
2021/12/03 18:05:55;;;;;;;9.00;8.03;;;;;;;;;;4998651;28;20183;-71
2021/12/03 18:08:32;;;;;;;9.50;7.87;;;;;;;;;;4993643;28;20226;-72
2021/12/03 18:19:27;;;;;;;11.90;9.97;;;;;;;;;;4999806;28;20198;-71
2021/12/03 18:44:05;;;;;;;10.20;9.10;;;;;;;;;;5001066;28;20600;-71
2021/12/03 18:46:52;;;;;;;10.47;9.37;;;;;;;;;;5011387;28;20182;-70
2021/12/03 18:54:56;;;;;;;10.93;9.53;;;;;;;;;;4986197;28;20222;-72
2021/12/03 18:57:27;;;;;;;10.70;9.60;;;;;;;;;;4996591;28;20191;-72
2021/12/03 18:59:59;;;;;;;11.47;9.37;;;;;;;;;;4983986;28;20566;-72
2021/12/03 19:02:26;;;;;;;11.53;9.83;;;;;;;;;;4997670;28;20194;-71
2021/12/03 19:08:04;;;;;;;12.27;9.30;;;;;;;;;;4999971;28;20750;-71
2021/12/03 19:10:31;;;;;;;10.20;9.10;;;;;;;;;;4986279;28;20754;-72
2021/12/03 19:13:01;;;;;;;14.03;10.90;;;;;;;;;;4648410;28;10000444;-72
2021/12/03 19:15:26;;;;;;;13.03;9.50;;;;;;;;;;4984241;28;20205;-71
2021/12/03 19:17:52;;;;;;;12.40;10.00;;;;;;;;;;4991790;28;20194;-72
2021/12/03 19:20:23;;;;;;;10.67;9.20;;;;;;;;;;4996463;28;20689;-72
2021/12/03 19:22:49;;;;;;;12.93;9.03;;;;;;;;;;4984610;28;20210;-71
2021/12/03 19:25:16;;;;;;;11.37;9.27;;;;;;;;;;4991876;28;20642;-71
2021/12/03 19:27:42;;;;;;;12.80;10.47;;;;;;;;;;4986291;28;20886;-71
2021/12/03 19:30:08;;;;;;;13.37;10.97;;;;;;;;;;4993894;28;20233;-72
2021/12/03 19:32:33;;;;;;;12.97;10.57;;;;;;;;;;4985648;28;20210;-71
2021/12/03 19:34:59;;;;;;;14.80;10.73;;;;;;;;;;5011770;28;20182;-71
2021/12/03 19:37:28;;;;;;;13.40;10.40;;;;;;;;;;4996034;28;20198;-71
2021/12/03 19:39:59;;;;;;;16.03;11.07;;;;;;;;;;4994745;28;20221;-71
2021/12/03 19:42:31;;;;;;;13.50;10.60;;;;;;;;;;4991311;28;20199;-71
2021/12/03 19:45:03;;;;;;;12.83;10.83;;;;;;;;;;5001332;28;20783;-71
2021/12/03 19:47:58;;;;;;;14.50;10.50;;;;;;;;;;4993092;28;20198;-71
2021/12/03 19:52:52;;;;;;;13.73;11.33;;;;;;;;;;4995628;28;20207;-71
2021/12/03 19:55:18;;;;;;;14.10;11.13;;;;;;;;;;5012683;28;20213;-71
2021/12/03 19:57:43;;;;;;;13.47;11.00;;;;;;;;;;4997457;28;20233;-72
2021/12/03 20:00:09;;;;;;;14.00;11.70;;;;;;;;;;5005041;28;20603;-71
2021/12/03 20:02:35;;;;;;;12.63;10.43;;;;;;;;;;5005307;28;20220;-72
2021/12/03 20:05:00;;;;;;;13.03;10.83;;;;;;;;;;4996129;28;20198;-71
2021/12/03 20:07:26;;;;;;;14.97;10.63;;;;;;;;;;5004908;28;20598;-71
2021/12/03 20:10:00;;;;;;;15.37;10.80;;;;;;;;;;4992703;28;20274;-72
2021/12/03 20:12:26;;;;;;;12.37;10.13;;;;;;;;;;5010021;28;20696;-71
2021/12/03 20:14:52;;;;;;;13.83;10.60;;;;;;;;;;4992289;28;20302;-71
2021/12/03 20:17:21;;;;;;;12.50;9.87;;;;;;;;;;5015328;28;20322;-72
2021/12/03 20:19:50;;;;;;;12.23;9.73;;;;;;;;;;4992104;28;20207;-72
2021/12/03 20:25:30;;;;;;;13.60;10.40;;;;;;;;;;4996899;28;20214;-71
2021/12/03 20:28:07;;;;;;;15.57;9.87;;;;;;;;;;5000258;28;20206;-71
2021/12/03 20:33:05;;;;;;;12.30;9.60;;;;;;;;;;5011331;28;20630;-71
2021/12/03 20:38:12;;;;;;;16.53;10.00;;;;;;;;;;5008597;28;20587;-71
2021/12/03 20:40:37;;;;;;;11.43;9.30;;;;;;;;;;4997754;28;20281;-71
2021/12/03 20:45:54;;;;;;;13.60;10.27;;;;;;;;;;4996382;28;20202;-71
2021/12/03 21:10:22;;;;;;;9.60;8.30;;;;;;;;;;5001303;28;20229;-71
2021/12/03 21:12:49;;;;;;;8.63;7.57;;;;;;;;;;4993323;28;20290;-71
2021/12/03 21:15:29;;;;;;;9.40;8.50;;;;;;;;;;4999440;28;20217;-71
2021/12/03 21:20:38;;;;;;;9.37;8.27;;;;;;;;;;5003416;28;20203;-71
2021/12/03 21:23:07;;;;;;;10.77;8.37;;;;;;;;;;4997624;28;20186;-71
2021/12/03 21:25:35;;;;;;;7.93;7.13;;;;;;;;;;5005441;28;20194;-72
2021/12/03 21:28:53;;;;;;;8.60;7.73;;;;;;;;;;4989502;28;20218;-72
2021/12/03 21:31:09;;;;;;;8.40;7.23;;;;;;;;;;4991066;28;20269;-71
2021/12/03 21:41:29;;;;;;;8.47;7.27;;;;;;;;;;5006852;28;20231;-71
2021/12/03 21:44:01;;;;;;;9.00;7.73;;;;;;;;;;5002975;28;20274;-72
2021/12/03 21:46:29;;;;;;;8.60;7.70;;;;;;;;;;5008034;28;20220;-72
2021/12/03 21:48:55;;;;;;;8.60;7.07;;;;;;;;;;4991993;28;20311;-71
2021/12/03 21:51:22;;;;;;;8.00;7.00;;;;;;;;;;5009548;28;20197;-71
2021/12/03 21:53:48;;;;;;;8.23;7.43;;;;;;;;;;4996908;28;20282;-71
2021/12/03 21:56:15;;;;;;;8.03;7.23;;;;;;;;;;5007459;28;21000;-70
2021/12/03 21:58:40;;;;;;;8.63;7.07;;;;;;;;;;4996876;28;20631;-71